createdAt,value
2022-10-01T00:02:08.124Z,89.39
2022-10-01T00:04:37.793Z,89.67
2022-10-01T00:07:10.365Z,90.22
2022-10-01T00:09:38.576Z,90.08
2022-10-01T00:12:07.394Z,89.66
2022-10-01T00:14:39.024Z,90.14
2022-10-01T00:17:06.761Z,90.34
2022-10-01T00:19:34.472Z,90.38
2022-10-01T00:22:02.600Z,90.49
2022-10-01T00:24:30.307Z,90.53
2022-10-01T00:26:57.993Z,90.42
2022-10-01T00:29:25.720Z,90.67
2022-10-01T00:31:53.513Z,90.75
2022-10-01T00:34:21.298Z,91.19
2022-10-01T00:36:49.326Z,91.44
2022-10-01T00:39:17.030Z,91.57
2022-10-01T00:41:44.847Z,91.72
2022-10-01T00:44:35.404Z,92.00
2022-10-01T00:47:20.064Z,92.21
2022-10-01T00:49:50.628Z,92.33
2022-10-01T00:52:24.747Z,92.41
2022-10-01T00:55:04.039Z,92.03
2022-10-01T00:57:33.307Z,92.13
2022-10-01T01:00:05.950Z,91.89
2022-10-01T01:02:33.785Z,91.98
2022-10-01T01:05:02.139Z,92.35
2022-10-01T01:07:32.579Z,92.36
2022-10-01T01:10:01.886Z,92.98
2022-10-01T01:12:59.905Z,92.85
2022-10-01T01:15:46.495Z,93.03
2022-10-01T01:18:40.300Z,92.83
2022-10-01T01:21:55.145Z,92.62
2022-10-01T01:24:51.732Z,93.09
2022-10-01T01:27:40.922Z,93.09
2022-10-01T01:30:12.233Z,93.88
2022-10-01T01:33:05.938Z,93.66
2022-10-01T01:35:44.128Z,93.67
2022-10-01T01:38:20.361Z,93.58
2022-10-01T01:40:52.296Z,93.61
2022-10-01T01:43:31.205Z,93.75
2022-10-01T01:46:01.242Z,94.08
2022-10-01T01:48:31.986Z,93.82
2022-10-01T01:51:12.705Z,93.66
2022-10-01T01:53:41.036Z,93.72
2022-10-01T01:56:09.623Z,93.79
2022-10-01T01:58:39.252Z,93.82
2022-10-01T02:01:07.165Z,94.28
2022-10-01T02:03:35.428Z,93.86
2022-10-01T02:06:28.002Z,93.86
2022-10-01T02:09:19.738Z,93.94
2022-10-01T02:13:01.931Z,94.12
2022-10-01T02:16:04.373Z,94.36
2022-10-01T02:19:00.554Z,94.60
2022-10-01T02:21:57.180Z,94.41
2022-10-01T02:24:43.330Z,94.15
2022-10-01T02:27:25.701Z,94.55
2022-10-01T02:29:57.274Z,94.29
2022-10-01T02:32:26.853Z,94.43
2022-10-01T02:34:54.961Z,94.52
2022-10-01T02:37:26.005Z,94.73
2022-10-01T02:39:57.467Z,94.89
2022-10-01T02:42:29.026Z,94.61
2022-10-01T02:45:02.425Z,94.48
2022-10-01T02:48:09.045Z,94.39
2022-10-01T02:50:53.418Z,94.50
2022-10-01T02:53:40.766Z,94.48
2022-10-01T02:56:10.253Z,94.81
2022-10-01T02:58:37.972Z,94.68
2022-10-01T03:01:06.242Z,94.64
2022-10-01T03:03:33.991Z,94.81
2022-10-01T03:06:01.720Z,94.63
2022-10-01T03:08:29.418Z,94.75
2022-10-01T03:10:57.153Z,94.97
2022-10-01T03:13:25.266Z,94.94
2022-10-01T03:15:53.039Z,94.98
2022-10-01T03:18:20.778Z,94.80
2022-10-01T03:20:48.449Z,94.99
2022-10-01T03:23:16.245Z,94.99
2022-10-01T03:25:43.932Z,95.14
2022-10-01T03:28:12.489Z,95.10
2022-10-01T03:30:40.243Z,94.92
2022-10-01T03:33:08.030Z,94.93
2022-10-01T03:35:35.702Z,95.33
2022-10-01T03:38:03.442Z,95.54
2022-10-01T03:40:33.337Z,95.51
2022-10-01T03:43:01.070Z,95.69
2022-10-01T03:45:28.893Z,95.33
2022-10-01T03:47:56.580Z,95.65
2022-10-01T03:50:24.251Z,95.43
2022-10-01T03:52:51.948Z,95.62
2022-10-01T03:55:19.594Z,95.58
2022-10-01T03:57:47.577Z,95.64
2022-10-01T04:00:15.372Z,95.39
2022-10-01T04:02:43.419Z,95.48
2022-10-01T04:05:12.333Z,95.55
2022-10-01T04:07:42.683Z,95.14
2022-10-01T04:10:10.401Z,95.19
2022-10-01T04:12:38.289Z,95.36
2022-10-01T04:15:06.482Z,95.52
2022-10-01T04:17:34.274Z,95.59
2022-10-01T04:20:02.119Z,95.39
2022-10-01T04:22:30.290Z,95.25
2022-10-01T04:24:57.972Z,95.43
2022-10-01T04:27:26.215Z,95.61
2022-10-01T04:29:53.892Z,95.51
2022-10-01T04:32:22.157Z,95.68
2022-10-01T04:34:52.863Z,95.86
2022-10-01T04:37:21.613Z,95.68
2022-10-01T04:39:49.758Z,95.75
2022-10-01T04:42:17.703Z,95.98
2022-10-01T04:44:45.394Z,95.31
2022-10-01T04:47:13.281Z,95.20
2022-10-01T04:49:41.024Z,95.09
2022-10-01T04:52:08.711Z,95.53
2022-10-01T04:54:36.394Z,95.40
2022-10-01T04:57:04.098Z,95.77
2022-10-01T04:59:32.698Z,95.88
2022-10-01T05:02:00.461Z,96.05
2022-10-01T05:04:28.315Z,96.09
2022-10-01T05:06:56.273Z,95.62
2022-10-01T05:09:24.075Z,95.34
2022-10-01T05:11:52.123Z,95.62
2022-10-01T05:14:22.779Z,95.25
2022-10-01T05:16:50.618Z,95.61
2022-10-01T05:19:18.487Z,95.79
2022-10-01T05:21:46.377Z,95.49
2022-10-01T05:24:15.215Z,95.75
2022-10-01T05:26:42.924Z,95.80
2022-10-01T05:29:11.345Z,95.56
2022-10-01T05:31:42.000Z,95.18
2022-10-01T05:34:10.588Z,95.49
2022-10-01T05:36:38.434Z,95.41
2022-10-01T05:39:06.084Z,95.19
2022-10-01T05:41:34.056Z,95.35
2022-10-01T05:44:02.934Z,95.03
2022-10-01T05:46:31.925Z,95.25
2022-10-01T05:48:59.624Z,94.87
2022-10-01T05:51:27.657Z,94.76
2022-10-01T05:53:59.005Z,95.13
2022-10-01T05:56:26.748Z,95.21
2022-10-01T05:58:55.056Z,95.28
2022-10-01T06:01:22.776Z,95.08
2022-10-01T06:03:52.341Z,95.13
2022-10-01T06:06:27.373Z,94.89
2022-10-01T06:08:55.156Z,95.22
2022-10-01T06:11:24.117Z,95.17
2022-10-01T06:13:52.535Z,95.03
2022-10-01T06:16:20.968Z,94.79
2022-10-01T06:18:49.486Z,94.47
2022-10-01T06:21:17.219Z,94.18
2022-10-01T06:23:45.738Z,94.09
2022-10-01T06:26:13.481Z,93.93
2022-10-01T06:28:41.261Z,93.83
2022-10-01T06:31:08.928Z,93.81
2022-10-01T06:33:37.137Z,93.44
2022-10-01T06:36:05.183Z,93.25
2022-10-01T06:38:33.137Z,92.79
2022-10-01T06:41:02.404Z,92.31
2022-10-01T06:43:31.715Z,91.91
2022-10-01T06:46:04.699Z,91.31
2022-10-01T06:48:32.808Z,91.26
2022-10-01T06:51:00.549Z,90.85
2022-10-01T06:53:29.030Z,90.50
2022-10-01T06:55:57.136Z,90.35
2022-10-01T06:58:28.306Z,89.60
2022-10-01T07:01:02.042Z,89.73
2022-10-01T07:03:31.428Z,89.69
2022-10-01T07:06:05.543Z,89.57
2022-10-01T07:08:33.523Z,89.21
2022-10-01T07:11:02.953Z,89.09
2022-10-01T07:13:30.988Z,88.74
2022-10-01T07:15:58.715Z,88.01
2022-10-01T07:18:26.986Z,87.82
2022-10-01T07:20:59.473Z,86.86
2022-10-01T07:23:27.196Z,86.48
2022-10-01T07:25:55.178Z,86.21
2022-10-01T07:28:25.761Z,86.01
2022-10-01T07:31:02.091Z,85.97
2022-10-01T07:33:29.979Z,85.29
2022-10-01T07:36:04.210Z,85.09
2022-10-01T07:38:33.606Z,84.66
2022-10-01T07:41:03.286Z,83.78
2022-10-01T07:43:33.215Z,83.39
2022-10-01T07:46:01.961Z,82.61
2022-10-01T07:48:30.961Z,82.37
2022-10-01T07:50:58.652Z,81.29
2022-10-01T07:53:27.457Z,81.53
2022-10-01T07:55:55.446Z,80.39
2022-10-01T07:58:24.288Z,80.57
2022-10-01T08:00:56.111Z,80.34
2022-10-01T08:03:25.452Z,79.92
2022-10-01T08:05:53.618Z,78.32
2022-10-01T08:08:21.539Z,77.77
2022-10-01T08:10:50.635Z,76.21
2022-10-01T08:13:18.933Z,76.03
2022-10-01T08:15:53.555Z,75.48
2022-10-01T08:18:23.558Z,74.98
2022-10-01T08:20:52.423Z,74.81
2022-10-01T08:23:21.385Z,74.79
2022-10-01T08:25:49.159Z,72.98
2022-10-01T08:28:17.212Z,72.49
2022-10-01T08:30:45.163Z,71.82
2022-10-01T08:33:14.535Z,71.56
2022-10-01T08:35:43.710Z,71.77
2022-10-01T08:38:12.969Z,71.81
2022-10-01T08:40:46.466Z,71.05
2022-10-01T08:43:38.664Z,71.34
2022-10-01T08:46:17.906Z,71.56
2022-10-01T08:49:31.781Z,71.70
2022-10-01T08:52:13.238Z,71.00
2022-10-01T08:54:56.896Z,71.19
2022-10-01T08:57:31.258Z,71.17
2022-10-01T09:00:04.066Z,70.95
2022-10-01T09:02:37.984Z,70.50
2022-10-01T09:05:24.845Z,69.29
2022-10-01T09:08:43.715Z,68.26
2022-10-01T09:11:44.752Z,67.78
2022-10-01T09:14:54.886Z,68.05
2022-10-01T09:17:49.069Z,67.24
2022-10-01T09:20:32.856Z,66.78
2022-10-01T09:23:30.047Z,66.37
2022-10-01T09:25:59.994Z,65.37
2022-10-01T09:28:35.517Z,63.85
2022-10-01T09:31:06.481Z,64.03
2022-10-01T09:33:43.136Z,63.77
2022-10-01T09:36:45.044Z,64.01
2022-10-01T09:39:34.889Z,63.96
2022-10-01T09:42:03.583Z,64.27
2022-10-01T09:44:33.805Z,63.19
2022-10-01T09:47:01.621Z,63.61
2022-10-01T09:49:45.870Z,62.99
2022-10-01T09:52:39.683Z,63.89
2022-10-01T09:55:36.605Z,63.91
2022-10-01T09:58:20.801Z,63.65
2022-10-01T10:00:51.542Z,63.40
2022-10-01T10:03:27.308Z,63.41
2022-10-01T10:05:55.615Z,63.13
2022-10-01T10:08:31.815Z,62.16
2022-10-01T10:11:11.727Z,60.33
2022-10-01T10:13:42.428Z,60.48
2022-10-01T10:16:26.452Z,60.86
2022-10-01T10:19:02.263Z,61.63
2022-10-01T10:21:34.883Z,61.20
2022-10-01T10:24:06.498Z,61.70
2022-10-01T10:26:39.359Z,62.35
2022-10-01T10:29:24.962Z,61.95
2022-10-01T10:31:55.517Z,62.04
2022-10-01T10:34:41.054Z,61.60
2022-10-01T10:37:20.137Z,61.77
2022-10-01T10:39:52.311Z,62.00
2022-10-01T10:42:22.660Z,62.59
2022-10-01T10:44:54.877Z,63.00
2022-10-01T10:47:24.340Z,63.18
2022-10-01T10:49:57.785Z,62.18
2022-10-01T10:52:36.078Z,62.63
2022-10-01T10:55:21.553Z,63.11
2022-10-01T10:57:49.325Z,62.25
2022-10-01T11:00:21.532Z,62.42
2022-10-01T11:03:06.174Z,62.66
2022-10-01T11:05:41.662Z,62.68
2022-10-01T11:08:20.534Z,61.25
2022-10-01T11:11:13.829Z,61.87
2022-10-01T11:14:08.368Z,61.75
2022-10-01T11:17:05.856Z,61.42
2022-10-01T11:20:20.790Z,61.97
2022-10-01T11:23:36.625Z,61.72
2022-10-01T11:26:26.972Z,61.64
2022-10-01T11:29:29.686Z,62.41
2022-10-01T11:32:25.032Z,62.52
2022-10-01T11:35:18.728Z,60.32
2022-10-01T11:38:23.403Z,61.75
2022-10-01T11:40:57.983Z,61.20
2022-10-01T11:43:39.001Z,61.24
2022-10-01T11:46:32.822Z,60.15
2022-10-01T11:49:27.933Z,61.16
2022-10-01T11:52:27.516Z,61.22
2022-10-01T11:55:40.432Z,60.31
2022-10-01T11:58:54.697Z,60.42
2022-10-01T12:01:49.266Z,61.31
2022-10-01T12:05:08.841Z,60.18
2022-10-01T12:07:54.082Z,60.51
2022-10-01T12:10:47.774Z,59.12
2022-10-01T12:13:15.895Z,58.76
2022-10-01T12:15:58.004Z,58.39
2022-10-01T12:18:36.747Z,57.37
2022-10-01T12:21:18.471Z,57.47
2022-10-01T12:23:58.092Z,56.60
2022-10-01T12:27:07.731Z,57.62
2022-10-01T12:29:52.624Z,56.87
2022-10-01T12:32:48.595Z,55.92
2022-10-01T12:35:47.468Z,57.81
2022-10-01T12:38:40.748Z,57.83
2022-10-01T12:41:44.699Z,58.30
2022-10-01T12:44:26.565Z,58.20
2022-10-01T12:47:39.536Z,57.81
2022-10-01T12:50:19.638Z,58.08
2022-10-01T12:53:05.540Z,58.73
2022-10-01T12:55:52.347Z,58.23
2022-10-01T12:58:54.590Z,58.33
2022-10-01T13:01:56.933Z,58.40
2022-10-01T13:04:56.734Z,58.62
2022-10-01T13:08:02.516Z,59.22
2022-10-01T13:11:09.062Z,58.90
2022-10-01T13:13:38.652Z,59.73
2022-10-01T13:16:32.307Z,59.22
2022-10-01T13:19:20.481Z,58.43
2022-10-01T13:22:18.578Z,58.87
2022-10-01T13:25:19.432Z,58.51
2022-10-01T13:28:03.533Z,59.58
2022-10-01T13:30:49.463Z,59.59
2022-10-01T13:33:25.387Z,58.50
2022-10-01T13:36:02.162Z,57.47
2022-10-01T13:38:47.531Z,57.86
2022-10-01T13:41:25.587Z,58.27
2022-10-01T13:44:04.226Z,58.28
2022-10-01T13:46:47.545Z,59.02
2022-10-01T13:49:22.261Z,60.28
2022-10-01T13:51:52.574Z,59.44
2022-10-01T13:54:39.773Z,60.10
2022-10-01T13:57:36.220Z,60.23
2022-10-01T14:00:23.376Z,60.77
2022-10-01T14:03:42.105Z,61.35
2022-10-01T14:06:35.252Z,61.58
2022-10-01T14:09:35.337Z,61.86
2022-10-01T14:12:40.904Z,61.37
2022-10-01T14:15:57.796Z,60.03
2022-10-01T14:18:42.742Z,57.59
2022-10-01T14:21:49.762Z,57.24
2022-10-01T14:24:49.170Z,57.67
2022-10-01T14:27:47.495Z,57.92
2022-10-01T14:30:23.476Z,57.99
2022-10-01T14:33:43.140Z,57.83
2022-10-01T14:36:40.947Z,58.14
2022-10-01T14:39:25.877Z,59.05
2022-10-01T14:41:56.463Z,60.54
2022-10-01T14:44:28.908Z,61.78
2022-10-01T14:46:59.693Z,62.47
2022-10-01T14:49:31.971Z,63.16
2022-10-01T14:52:17.553Z,64.45
2022-10-01T14:55:08.106Z,66.40
2022-10-01T14:57:43.913Z,68.27
2022-10-01T15:00:22.617Z,68.99
2022-10-01T15:03:15.205Z,69.91
2022-10-01T15:05:46.277Z,70.54
2022-10-01T15:08:33.091Z,70.79
2022-10-01T15:11:08.073Z,71.45
2022-10-01T15:13:40.116Z,72.21
2022-10-01T15:16:17.917Z,72.57
2022-10-01T15:18:53.480Z,73.45
2022-10-01T15:21:30.926Z,73.75
2022-10-01T15:23:59.463Z,73.92
2022-10-01T15:26:28.146Z,74.89
2022-10-01T15:29:12.487Z,75.03
2022-10-01T15:31:41.402Z,76.11
2022-10-01T15:34:16.557Z,76.72
2022-10-01T15:36:45.985Z,77.20
2022-10-01T15:39:35.486Z,78.30
2022-10-01T15:42:28.169Z,78.83
2022-10-01T15:45:08.075Z,78.79
2022-10-01T15:47:38.344Z,79.06
2022-10-01T15:50:34.392Z,79.73
2022-10-01T15:53:21.341Z,80.18
2022-10-01T15:55:56.922Z,80.78
2022-10-01T15:58:34.987Z,81.16
2022-10-01T16:01:09.257Z,81.95
2022-10-01T16:03:42.223Z,81.96
2022-10-01T16:06:18.923Z,82.31
2022-10-01T16:09:19.317Z,82.74
2022-10-01T16:11:52.839Z,83.10
2022-10-01T16:14:33.047Z,82.92
2022-10-01T16:17:19.566Z,82.77
2022-10-01T16:19:53.713Z,82.92
2022-10-01T16:22:44.425Z,83.14
2022-10-01T16:25:19.579Z,83.04
2022-10-01T16:27:50.860Z,83.05
2022-10-01T16:30:29.637Z,83.21
2022-10-01T16:33:02.316Z,82.95
2022-10-01T16:35:35.670Z,83.51
2022-10-01T16:38:08.274Z,83.11
2022-10-01T16:40:42.361Z,83.37
2022-10-01T16:43:25.031Z,83.07
2022-10-01T16:45:53.311Z,83.01
2022-10-01T16:48:24.895Z,82.49
2022-10-01T16:50:53.822Z,82.34
2022-10-01T16:53:24.601Z,82.31
2022-10-01T16:55:52.872Z,82.31
2022-10-01T16:58:21.773Z,82.26
2022-10-01T17:00:49.981Z,81.91
2022-10-01T17:03:20.991Z,82.08
2022-10-01T17:05:49.896Z,81.86
2022-10-01T17:08:17.696Z,81.80
2022-10-01T17:10:58.328Z,81.90
2022-10-01T17:13:31.291Z,82.00
2022-10-01T17:16:01.200Z,81.85
2022-10-01T17:18:29.301Z,82.35
2022-10-01T17:20:57.218Z,82.58
2022-10-01T17:23:25.281Z,82.26
2022-10-01T17:25:53.170Z,82.20
2022-10-01T17:28:21.608Z,82.49
2022-10-01T17:30:49.742Z,82.80
2022-10-01T17:33:19.455Z,83.01
2022-10-01T17:35:52.063Z,83.81
2022-10-01T17:38:21.012Z,84.48
2022-10-01T17:40:55.491Z,84.84
2022-10-01T17:43:24.795Z,85.48
2022-10-01T17:46:00.957Z,85.98
2022-10-01T17:48:29.957Z,86.27
2022-10-01T17:51:09.746Z,86.45
2022-10-01T17:53:42.120Z,86.54
2022-10-01T17:56:16.973Z,86.54
2022-10-01T17:58:46.139Z,86.11
2022-10-01T18:01:19.661Z,86.56
2022-10-01T18:03:51.799Z,86.23
2022-10-01T18:06:19.600Z,86.27
2022-10-01T18:08:56.266Z,86.32
2022-10-01T18:11:28.189Z,86.15
2022-10-01T18:13:56.557Z,86.36
2022-10-01T18:16:25.478Z,86.52
2022-10-01T18:21:50.968Z,86.45
2022-10-01T18:24:18.720Z,86.47
2022-10-01T18:26:46.654Z,86.62
2022-10-01T18:29:21.087Z,86.60
2022-10-01T18:32:17.666Z,86.61
2022-10-01T18:34:54.484Z,86.59
2022-10-01T18:37:40.013Z,86.67
2022-10-01T18:40:20.001Z,86.68
2022-10-01T18:43:07.381Z,86.54
2022-10-01T18:46:00.424Z,86.61
2022-10-01T18:49:05.302Z,87.28
2022-10-01T18:51:55.061Z,87.21
2022-10-01T18:54:50.026Z,87.28
2022-10-01T18:57:44.193Z,87.34
2022-10-01T19:00:18.959Z,87.04
2022-10-01T19:03:25.656Z,86.98
2022-10-01T19:06:19.387Z,87.06
2022-10-01T19:08:56.656Z,86.82
2022-10-01T19:11:38.043Z,86.45
2022-10-01T19:14:39.950Z,86.70
2022-10-01T19:17:34.940Z,86.60
2022-10-01T19:20:46.354Z,86.50
2022-10-01T19:23:30.251Z,86.64
2022-10-01T19:26:34.326Z,86.28
2022-10-01T19:29:45.920Z,86.46
2022-10-01T19:32:30.315Z,86.40
2022-10-01T19:35:16.991Z,86.17
2022-10-01T19:37:51.516Z,86.21
2022-10-01T19:40:38.207Z,86.25
2022-10-01T19:43:41.440Z,86.30
2022-10-01T19:46:22.750Z,86.08
2022-10-01T19:49:01.706Z,86.34
2022-10-01T19:51:35.068Z,86.50
2022-10-01T19:54:03.810Z,86.31
2022-10-01T19:56:34.639Z,86.49
2022-10-01T19:59:11.768Z,86.78
2022-10-01T20:01:51.774Z,86.79
2022-10-01T20:04:30.565Z,86.54
2022-10-01T20:07:07.351Z,86.49
2022-10-01T20:09:50.978Z,86.69
2022-10-01T20:12:40.472Z,86.66
2022-10-01T20:15:21.038Z,86.50
2022-10-01T20:18:16.394Z,86.41
2022-10-01T20:21:15.401Z,86.44
2022-10-01T20:24:03.129Z,86.59
2022-10-01T20:26:43.868Z,86.37
2022-10-01T20:29:50.723Z,86.51
2022-10-01T20:32:56.335Z,86.42
2022-10-01T20:36:07.655Z,86.54
2022-10-01T20:38:48.614Z,86.42
2022-10-01T20:41:21.264Z,86.37
2022-10-01T20:43:58.668Z,86.33
2022-10-01T20:46:38.299Z,86.32
2022-10-01T20:49:29.910Z,86.40
2022-10-01T20:52:13.020Z,86.63
2022-10-01T20:54:47.356Z,86.42
2022-10-01T20:57:31.330Z,86.42
2022-10-01T21:00:31.083Z,86.49
2022-10-01T21:03:12.306Z,86.23
2022-10-01T21:05:50.768Z,86.18
2022-10-01T21:08:53.439Z,86.25
2022-10-01T21:11:35.905Z,86.35
2022-10-01T21:14:25.536Z,86.37
2022-10-01T21:17:30.771Z,86.34
2022-10-01T21:20:37.822Z,86.11
2022-10-01T21:24:01.626Z,85.85
2022-10-01T21:27:24.385Z,85.73
2022-10-01T21:30:12.364Z,86.11
2022-10-01T21:33:23.935Z,86.23
2022-10-01T21:36:10.887Z,86.21
2022-10-01T21:38:50.466Z,86.34
2022-10-01T21:41:30.363Z,86.26
2022-10-01T21:44:52.450Z,86.03
2022-10-01T21:47:58.764Z,86.14
2022-10-01T21:50:56.302Z,86.20
2022-10-01T21:53:52.964Z,86.35
2022-10-01T21:56:38.423Z,86.15
2022-10-01T21:59:28.989Z,86.14
2022-10-01T22:02:14.822Z,86.30
2022-10-01T22:04:54.238Z,86.92
2022-10-01T22:07:38.687Z,86.49
2022-10-01T22:10:31.695Z,86.54
2022-10-01T22:13:04.380Z,86.36
2022-10-01T22:15:44.664Z,86.28
2022-10-01T22:18:27.996Z,86.13
2022-10-01T22:20:59.184Z,86.18
2022-10-01T22:23:31.008Z,85.80
2022-10-01T22:26:05.975Z,85.86
2022-10-01T22:28:39.146Z,85.58
2022-10-01T22:31:15.990Z,85.67
2022-10-01T22:33:52.546Z,85.81
2022-10-01T22:36:38.687Z,85.75
2022-10-01T22:39:23.035Z,85.78
2022-10-01T22:42:20.873Z,86.03
2022-10-01T22:44:48.631Z,86.44
2022-10-01T22:47:38.189Z,86.83
2022-10-01T22:50:52.194Z,87.38
2022-10-01T22:54:01.594Z,88.27
2022-10-01T22:57:02.113Z,88.76
2022-10-01T22:59:43.525Z,89.43
2022-10-01T23:02:42.806Z,89.67
2022-10-01T23:05:45.925Z,90.08
2022-10-01T23:08:39.477Z,90.88
2022-10-01T23:11:36.275Z,90.69
2022-10-01T23:14:53.727Z,90.42
2022-10-01T23:18:10.140Z,90.39
2022-10-01T23:21:48.410Z,90.43
2022-10-01T23:24:32.138Z,90.89
2022-10-01T23:27:47.137Z,91.51
2022-10-01T23:30:20.059Z,91.44
2022-10-01T23:33:10.673Z,91.24
2022-10-01T23:35:52.967Z,91.47
2022-10-01T23:38:30.906Z,91.75
2022-10-01T23:41:09.886Z,91.73
2022-10-01T23:43:48.476Z,91.28
2022-10-01T23:46:27.325Z,91.34
2022-10-01T23:49:11.166Z,91.49
2022-10-01T23:51:48.673Z,91.56
2022-10-01T23:54:33.314Z,91.46
2022-10-01T23:57:14.632Z,91.30
